sensor_id;sensor_type;location;lat;lon;timestamp;P1;durP1;ratioP1;P2;durP2;ratioP2
73382;SDS011;61600;48.126;11.542;2023-03-01T00:01:47;20.23;;;9.35;;
73382;SDS011;61600;48.126;11.542;2023-03-01T00:04:13;20.25;;;9.65;;
73382;SDS011;61600;48.126;11.542;2023-03-01T00:06:38;18.15;;;8.52;;
73382;SDS011;61600;48.126;11.542;2023-03-01T00:09:04;21.35;;;9.73;;
73382;SDS011;61600;48.126;11.542;2023-03-01T00:11:31;18.20;;;9.23;;
73382;SDS011;61600;48.126;11.542;2023-03-01T00:14:00;19.10;;;9.43;;
73382;SDS011;61600;48.126;11.542;2023-03-01T00:16:30;21.00;;;9.55;;
73382;SDS011;61600;48.126;11.542;2023-03-01T00:19:01;23.42;;;10.60;;
73382;SDS011;61600;48.126;11.542;2023-03-01T00:21:28;22.10;;;9.57;;
73382;SDS011;61600;48.126;11.542;2023-03-01T00:23:54;19.25;;;9.10;;
73382;SDS011;61600;48.126;11.542;2023-03-01T00:26:21;21.88;;;9.95;;
73382;SDS011;61600;48.126;11.542;2023-03-01T00:28:48;20.00;;;9.27;;
73382;SDS011;61600;48.126;11.542;2023-03-01T00:31:15;17.67;;;8.95;;
73382;SDS011;61600;48.126;11.542;2023-03-01T00:33:43;25.10;;;10.18;;
73382;SDS011;61600;48.126;11.542;2023-03-01T00:36:10;19.20;;;9.23;;
73382;SDS011;61600;48.126;11.542;2023-03-01T00:41:04;18.67;;;8.90;;
73382;SDS011;61600;48.126;11.542;2023-03-01T00:43:34;17.58;;;8.35;;
73382;SDS011;61600;48.126;11.542;2023-03-01T00:46:06;18.63;;;9.07;;
73382;SDS011;61600;48.126;11.542;2023-03-01T00:48:33;18.88;;;9.55;;
73382;SDS011;61600;48.126;11.542;2023-03-01T00:51:06;18.88;;;8.85;;
73382;SDS011;61600;48.126;11.542;2023-03-01T00:53:40;20.88;;;9.73;;
73382;SDS011;61600;48.126;11.542;2023-03-01T00:56:07;18.98;;;9.77;;
73382;SDS011;61600;48.126;11.542;2023-03-01T00:58:34;21.08;;;9.52;;
73382;SDS011;61600;48.126;11.542;2023-03-01T01:01:00;19.17;;;8.75;;
73382;SDS011;61600;48.126;11.542;2023-03-01T01:03:31;20.35;;;9.35;;
73382;SDS011;61600;48.126;11.542;2023-03-01T01:05:57;18.40;;;9.15;;
73382;SDS011;61600;48.126;11.542;2023-03-01T01:08:23;19.60;;;9.02;;
73382;SDS011;61600;48.126;11.542;2023-03-01T01:10:49;21.92;;;9.77;;
73382;SDS011;61600;48.126;11.542;2023-03-01T01:13:14;17.30;;;9.15;;
73382;SDS011;61600;48.126;11.542;2023-03-01T01:15:40;17.20;;;8.40;;
73382;SDS011;61600;48.126;11.542;2023-03-01T01:18:06;22.50;;;9.82;;
73382;SDS011;61600;48.126;11.542;2023-03-01T01:20:32;19.70;;;9.15;;
73382;SDS011;61600;48.126;11.542;2023-03-01T01:23:04;21.90;;;9.63;;
73382;SDS011;61600;48.126;11.542;2023-03-01T01:25:30;18.60;;;8.82;;
73382;SDS011;61600;48.126;11.542;2023-03-01T01:27:59;21.42;;;8.90;;
73382;SDS011;61600;48.126;11.542;2023-03-01T01:30:25;21.65;;;9.60;;
73382;SDS011;61600;48.126;11.542;2023-03-01T01:32:54;25.05;;;8.95;;
73382;SDS011;61600;48.126;11.542;2023-03-01T01:35:20;21.95;;;9.13;;
73382;SDS011;61600;48.126;11.542;2023-03-01T01:37:45;19.73;;;9.40;;
73382;SDS011;61600;48.126;11.542;2023-03-01T01:40:11;21.77;;;9.80;;
73382;SDS011;61600;48.126;11.542;2023-03-01T01:42:37;17.08;;;8.65;;
73382;SDS011;61600;48.126;11.542;2023-03-01T01:48:03;19.50;;;9.55;;
73382;SDS011;61600;48.126;11.542;2023-03-01T01:50:32;20.48;;;9.68;;
73382;SDS011;61600;48.126;11.542;2023-03-01T01:53:09;21.17;;;9.60;;
73382;SDS011;61600;48.126;11.542;2023-03-01T01:55:45;20.00;;;9.30;;
73382;SDS011;61600;48.126;11.542;2023-03-01T01:58:15;18.25;;;8.75;;
73382;SDS011;61600;48.126;11.542;2023-03-01T02:00:44;22.38;;;9.43;;
73382;SDS011;61600;48.126;11.542;2023-03-01T02:03:12;18.80;;;8.63;;
73382;SDS011;61600;48.126;11.542;2023-03-01T02:08:25;16.90;;;8.98;;
73382;SDS011;61600;48.126;11.542;2023-03-01T02:10:55;20.23;;;9.05;;
73382;SDS011;61600;48.126;11.542;2023-03-01T02:13:25;20.52;;;9.32;;
73382;SDS011;61600;48.126;11.542;2023-03-01T02:15:51;20.55;;;9.45;;
73382;SDS011;61600;48.126;11.542;2023-03-01T02:18:18;22.60;;;10.75;;
73382;SDS011;61600;48.126;11.542;2023-03-01T02:23:34;21.95;;;9.23;;
73382;SDS011;61600;48.126;11.542;2023-03-01T02:26:21;19.70;;;9.55;;
73382;SDS011;61600;48.126;11.542;2023-03-01T02:28:55;19.70;;;9.43;;
73382;SDS011;61600;48.126;11.542;2023-03-01T02:31:21;17.90;;;9.23;;
73382;SDS011;61600;48.126;11.542;2023-03-01T02:34:06;19.77;;;9.45;;
73382;SDS011;61600;48.126;11.542;2023-03-01T02:39:05;20.23;;;9.23;;
73382;SDS011;61600;48.126;11.542;2023-03-01T02:41:41;19.38;;;9.73;;
73382;SDS011;61600;48.126;11.542;2023-03-01T02:44:11;23.15;;;9.18;;
73382;SDS011;61600;48.126;11.542;2023-03-01T02:46:44;18.85;;;9.13;;
73382;SDS011;61600;48.126;11.542;2023-03-01T02:49:26;24.15;;;9.85;;
73382;SDS011;61600;48.126;11.542;2023-03-01T02:52:08;18.27;;;8.55;;
73382;SDS011;61600;48.126;11.542;2023-03-01T02:57:13;18.75;;;9.43;;
73382;SDS011;61600;48.126;11.542;2023-03-01T02:59:40;23.02;;;9.90;;
73382;SDS011;61600;48.126;11.542;2023-03-01T03:02:20;19.33;;;8.82;;
73382;SDS011;61600;48.126;11.542;2023-03-01T03:05:08;17.95;;;8.93;;
73382;SDS011;61600;48.126;11.542;2023-03-01T03:07:39;21.02;;;9.43;;
73382;SDS011;61600;48.126;11.542;2023-03-01T03:10:07;18.90;;;8.75;;
73382;SDS011;61600;48.126;11.542;2023-03-01T03:12:40;19.15;;;9.73;;
73382;SDS011;61600;48.126;11.542;2023-03-01T03:15:06;21.55;;;9.40;;
73382;SDS011;61600;48.126;11.542;2023-03-01T03:17:37;18.75;;;9.40;;
73382;SDS011;61600;48.126;11.542;2023-03-01T03:20:05;18.85;;;9.02;;
73382;SDS011;61600;48.126;11.542;2023-03-01T03:22:36;20.33;;;8.93;;
73382;SDS011;61600;48.126;11.542;2023-03-01T03:25:03;20.17;;;9.82;;
73382;SDS011;61600;48.126;11.542;2023-03-01T03:27:29;20.45;;;9.85;;
73382;SDS011;61600;48.126;11.542;2023-03-01T03:29:57;20.42;;;9.05;;
73382;SDS011;61600;48.126;11.542;2023-03-01T03:32:23;20.63;;;9.32;;
73382;SDS011;61600;48.126;11.542;2023-03-01T03:34:48;22.17;;;8.82;;
73382;SDS011;61600;48.126;11.542;2023-03-01T03:37:14;20.88;;;9.18;;
73382;SDS011;61600;48.126;11.542;2023-03-01T03:40:00;19.10;;;8.65;;
73382;SDS011;61600;48.126;11.542;2023-03-01T03:42:26;21.65;;;9.45;;
73382;SDS011;61600;48.126;11.542;2023-03-01T03:44:51;20.75;;;9.55;;
73382;SDS011;61600;48.126;11.542;2023-03-01T03:47:17;19.25;;;9.05;;
73382;SDS011;61600;48.126;11.542;2023-03-01T03:49:43;20.25;;;9.57;;
73382;SDS011;61600;48.126;11.542;2023-03-01T03:52:09;18.45;;;9.43;;
73382;SDS011;61600;48.126;11.542;2023-03-01T03:54:39;20.40;;;10.32;;
73382;SDS011;61600;48.126;11.542;2023-03-01T03:57:06;21.23;;;9.20;;
73382;SDS011;61600;48.126;11.542;2023-03-01T03:59:32;21.50;;;8.80;;
73382;SDS011;61600;48.126;11.542;2023-03-01T04:01:58;19.08;;;8.55;;
73382;SDS011;61600;48.126;11.542;2023-03-01T04:04:24;19.60;;;9.25;;
73382;SDS011;61600;48.126;11.542;2023-03-01T04:06:50;15.50;;;7.55;;
73382;SDS011;61600;48.126;11.542;2023-03-01T04:09:16;20.38;;;8.88;;
73382;SDS011;61600;48.126;11.542;2023-03-01T04:11:42;22.00;;;9.35;;
73382;SDS011;61600;48.126;11.542;2023-03-01T04:14:08;21.67;;;9.55;;
73382;SDS011;61600;48.126;11.542;2023-03-01T04:16:35;22.42;;;9.70;;
73382;SDS011;61600;48.126;11.542;2023-03-01T04:19:00;19.70;;;9.32;;
73382;SDS011;61600;48.126;11.542;2023-03-01T04:21:26;23.35;;;9.90;;
73382;SDS011;61600;48.126;11.542;2023-03-01T04:23:52;21.63;;;9.75;;
73382;SDS011;61600;48.126;11.542;2023-03-01T04:26:18;21.17;;;9.82;;
73382;SDS011;61600;48.126;11.542;2023-03-01T04:28:45;23.00;;;9.63;;
73382;SDS011;61600;48.126;11.542;2023-03-01T04:31:13;21.63;;;9.75;;
73382;SDS011;61600;48.126;11.542;2023-03-01T04:33:44;21.20;;;8.88;;
73382;SDS011;61600;48.126;11.542;2023-03-01T04:36:18;20.73;;;9.55;;
73382;SDS011;61600;48.126;11.542;2023-03-01T04:38:45;20.13;;;9.40;;
73382;SDS011;61600;48.126;11.542;2023-03-01T04:41:13;22.10;;;10.38;;
73382;SDS011;61600;48.126;11.542;2023-03-01T04:43:39;19.10;;;9.85;;
73382;SDS011;61600;48.126;11.542;2023-03-01T04:46:06;22.17;;;9.07;;
73382;SDS011;61600;48.126;11.542;2023-03-01T04:48:35;21.35;;;9.55;;
73382;SDS011;61600;48.126;11.542;2023-03-01T04:51:02;22.70;;;10.00;;
73382;SDS011;61600;48.126;11.542;2023-03-01T04:53:29;21.00;;;9.35;;
73382;SDS011;61600;48.126;11.542;2023-03-01T04:55:55;17.35;;;8.80;;
73382;SDS011;61600;48.126;11.542;2023-03-01T04:58:23;20.60;;;9.38;;
73382;SDS011;61600;48.126;11.542;2023-03-01T05:00:49;24.55;;;10.45;;
73382;SDS011;61600;48.126;11.542;2023-03-01T05:03:15;19.55;;;9.18;;
73382;SDS011;61600;48.126;11.542;2023-03-01T05:05:44;23.52;;;8.93;;
73382;SDS011;61600;48.126;11.542;2023-03-01T05:08:11;21.13;;;9.93;;
73382;SDS011;61600;48.126;11.542;2023-03-01T05:10:47;20.23;;;9.20;;
73382;SDS011;61600;48.126;11.542;2023-03-01T05:13:14;20.38;;;8.93;;
73382;SDS011;61600;48.126;11.542;2023-03-01T05:15:53;22.05;;;9.18;;
73382;SDS011;61600;48.126;11.542;2023-03-01T05:18:22;21.00;;;8.90;;
73382;SDS011;61600;48.126;11.542;2023-03-01T05:20:54;20.77;;;9.65;;
73382;SDS011;61600;48.126;11.542;2023-03-01T05:23:23;19.90;;;9.48;;
73382;SDS011;61600;48.126;11.542;2023-03-01T05:25:50;20.60;;;9.52;;
73382;SDS011;61600;48.126;11.542;2023-03-01T05:28:17;21.85;;;9.30;;
73382;SDS011;61600;48.126;11.542;2023-03-01T05:30:44;20.02;;;9.07;;
73382;SDS011;61600;48.126;11.542;2023-03-01T05:33:11;23.65;;;10.15;;
73382;SDS011;61600;48.126;11.542;2023-03-01T05:35:40;21.33;;;9.98;;
73382;SDS011;61600;48.126;11.542;2023-03-01T05:38:07;20.52;;;9.43;;
73382;SDS011;61600;48.126;11.542;2023-03-01T05:40:34;25.10;;;10.20;;
73382;SDS011;61600;48.126;11.542;2023-03-01T05:43:00;21.70;;;9.90;;
73382;SDS011;61600;48.126;11.542;2023-03-01T05:45:27;22.67;;;9.95;;
73382;SDS011;61600;48.126;11.542;2023-03-01T05:47:53;24.65;;;10.15;;
73382;SDS011;61600;48.126;11.542;2023-03-01T05:52:48;22.75;;;8.70;;
73382;SDS011;61600;48.126;11.542;2023-03-01T05:55:16;23.35;;;10.18;;
73382;SDS011;61600;48.126;11.542;2023-03-01T05:57:44;19.88;;;9.57;;
73382;SDS011;61600;48.126;11.542;2023-03-01T06:00:10;19.77;;;9.77;;
73382;SDS011;61600;48.126;11.542;2023-03-01T06:02:38;21.08;;;10.05;;
73382;SDS011;61600;48.126;11.542;2023-03-01T06:05:06;24.85;;;10.05;;
73382;SDS011;61600;48.126;11.542;2023-03-01T06:07:34;23.70;;;10.07;;
73382;SDS011;61600;48.126;11.542;2023-03-01T06:10:00;20.67;;;9.85;;
73382;SDS011;61600;48.126;11.542;2023-03-01T06:12:29;22.90;;;10.20;;
73382;SDS011;61600;48.126;11.542;2023-03-01T06:14:59;22.33;;;10.20;;
73382;SDS011;61600;48.126;11.542;2023-03-01T06:17:26;23.98;;;9.45;;
73382;SDS011;61600;48.126;11.542;2023-03-01T06:19:55;22.33;;;10.35;;
73382;SDS011;61600;48.126;11.542;2023-03-01T06:22:21;23.27;;;9.70;;
73382;SDS011;61600;48.126;11.542;2023-03-01T06:24:47;20.35;;;10.38;;
73382;SDS011;61600;48.126;11.542;2023-03-01T06:27:13;26.77;;;10.60;;
73382;SDS011;61600;48.126;11.542;2023-03-01T06:29:38;21.38;;;9.48;;
73382;SDS011;61600;48.126;11.542;2023-03-01T06:32:04;21.85;;;10.32;;
73382;SDS011;61600;48.126;11.542;2023-03-01T06:34:30;24.70;;;9.45;;
73382;SDS011;61600;48.126;11.542;2023-03-01T06:36:57;23.00;;;10.05;;
73382;SDS011;61600;48.126;11.542;2023-03-01T06:39:22;21.55;;;10.15;;
73382;SDS011;61600;48.126;11.542;2023-03-01T06:41:48;24.48;;;10.10;;
73382;SDS011;61600;48.126;11.542;2023-03-01T06:44:14;27.05;;;10.82;;
73382;SDS011;61600;48.126;11.542;2023-03-01T06:46:40;21.80;;;10.65;;
73382;SDS011;61600;48.126;11.542;2023-03-01T06:49:06;23.85;;;10.13;;
73382;SDS011;61600;48.126;11.542;2023-03-01T06:54:06;20.58;;;9.70;;
73382;SDS011;61600;48.126;11.542;2023-03-01T06:56:32;24.30;;;9.90;;
73382;SDS011;61600;48.126;11.542;2023-03-01T06:58:58;23.30;;;9.88;;
73382;SDS011;61600;48.126;11.542;2023-03-01T07:01:24;23.52;;;10.98;;
73382;SDS011;61600;48.126;11.542;2023-03-01T07:03:50;26.58;;;9.48;;
73382;SDS011;61600;48.126;11.542;2023-03-01T07:06:16;21.42;;;9.73;;
73382;SDS011;61600;48.126;11.542;2023-03-01T07:08:42;22.55;;;9.55;;
73382;SDS011;61600;48.126;11.542;2023-03-01T07:11:08;23.58;;;10.27;;
73382;SDS011;61600;48.126;11.542;2023-03-01T07:13:34;19.30;;;9.27;;
73382;SDS011;61600;48.126;11.542;2023-03-01T07:16:00;25.90;;;10.75;;
73382;SDS011;61600;48.126;11.542;2023-03-01T07:18:29;21.42;;;10.55;;
73382;SDS011;61600;48.126;11.542;2023-03-01T07:20:55;23.58;;;10.25;;
73382;SDS011;61600;48.126;11.542;2023-03-01T07:23:21;28.90;;;10.63;;
73382;SDS011;61600;48.126;11.542;2023-03-01T07:25:56;30.13;;;10.40;;
73382;SDS011;61600;48.126;11.542;2023-03-01T07:28:22;20.35;;;9.75;;
73382;SDS011;61600;48.126;11.542;2023-03-01T07:30:48;22.75;;;10.13;;
73382;SDS011;61600;48.126;11.542;2023-03-01T07:33:17;23.33;;;11.43;;
73382;SDS011;61600;48.126;11.542;2023-03-01T07:35:43;21.45;;;9.68;;
73382;SDS011;61600;48.126;11.542;2023-03-01T07:38:09;23.55;;;9.98;;
73382;SDS011;61600;48.126;11.542;2023-03-01T07:40:35;21.95;;;9.82;;
73382;SDS011;61600;48.126;11.542;2023-03-01T07:43:01;23.00;;;10.00;;
73382;SDS011;61600;48.126;11.542;2023-03-01T07:45:28;25.10;;;10.20;;
73382;SDS011;61600;48.126;11.542;2023-03-01T07:48:15;25.10;;;10.57;;
73382;SDS011;61600;48.126;11.542;2023-03-01T07:50:41;26.27;;;11.07;;
73382;SDS011;61600;48.126;11.542;2023-03-01T07:53:06;24.13;;;9.77;;
73382;SDS011;61600;48.126;11.542;2023-03-01T07:55:32;26.27;;;11.95;;
73382;SDS011;61600;48.126;11.542;2023-03-01T07:57:58;26.38;;;10.50;;
73382;SDS011;61600;48.126;11.542;2023-03-01T08:00:24;22.25;;;10.40;;
73382;SDS011;61600;48.126;11.542;2023-03-01T08:02:50;24.77;;;10.13;;
73382;SDS011;61600;48.126;11.542;2023-03-01T08:05:15;27.25;;;10.63;;
73382;SDS011;61600;48.126;11.542;2023-03-01T08:07:41;25.35;;;10.68;;
73382;SDS011;61600;48.126;11.542;2023-03-01T08:10:07;21.23;;;9.93;;
73382;SDS011;61600;48.126;11.542;2023-03-01T08:15:01;21.38;;;9.77;;
73382;SDS011;61600;48.126;11.542;2023-03-01T08:17:26;28.05;;;10.43;;
73382;SDS011;61600;48.126;11.542;2023-03-01T08:19:52;23.25;;;9.68;;
73382;SDS011;61600;48.126;11.542;2023-03-01T08:22:18;24.35;;;10.27;;
73382;SDS011;61600;48.126;11.542;2023-03-01T08:24:44;23.02;;;10.05;;
73382;SDS011;61600;48.126;11.542;2023-03-01T08:27:09;24.65;;;10.77;;
73382;SDS011;61600;48.126;11.542;2023-03-01T08:29:37;23.05;;;10.75;;
73382;SDS011;61600;48.126;11.542;2023-03-01T08:32:03;24.77;;;10.27;;
73382;SDS011;61600;48.126;11.542;2023-03-01T08:34:29;21.48;;;10.48;;
73382;SDS011;61600;48.126;11.542;2023-03-01T08:36:56;24.40;;;11.15;;
73382;SDS011;61600;48.126;11.542;2023-03-01T08:39:22;28.35;;;11.43;;
73382;SDS011;61600;48.126;11.542;2023-03-01T08:41:48;20.73;;;9.70;;
73382;SDS011;61600;48.126;11.542;2023-03-01T08:44:14;25.83;;;11.18;;
73382;SDS011;61600;48.126;11.542;2023-03-01T08:46:42;22.95;;;10.20;;
73382;SDS011;61600;48.126;11.542;2023-03-01T08:49:13;23.67;;;10.48;;
73382;SDS011;61600;48.126;11.542;2023-03-01T08:51:41;24.38;;;10.35;;
73382;SDS011;61600;48.126;11.542;2023-03-01T08:54:09;24.90;;;11.07;;
73382;SDS011;61600;48.126;11.542;2023-03-01T08:56:37;20.08;;;9.98;;
73382;SDS011;61600;48.126;11.542;2023-03-01T08:59:03;23.15;;;10.63;;
73382;SDS011;61600;48.126;11.542;2023-03-01T09:01:29;20.52;;;10.18;;
73382;SDS011;61600;48.126;11.542;2023-03-01T09:03:55;28.67;;;11.68;;
73382;SDS011;61600;48.126;11.542;2023-03-01T09:06:21;22.27;;;9.98;;
73382;SDS011;61600;48.126;11.542;2023-03-01T09:08:52;25.15;;;11.13;;
73382;SDS011;61600;48.126;11.542;2023-03-01T09:11:19;23.58;;;10.40;;
73382;SDS011;61600;48.126;11.542;2023-03-01T09:13:46;27.33;;;10.85;;
73382;SDS011;61600;48.126;11.542;2023-03-01T09:16:14;25.02;;;10.85;;
73382;SDS011;61600;48.126;11.542;2023-03-01T09:18:44;23.40;;;10.75;;
73382;SDS011;61600;48.126;11.542;2023-03-01T09:21:15;26.33;;;12.00;;
73382;SDS011;61600;48.126;11.542;2023-03-01T09:23:43;27.90;;;11.85;;
73382;SDS011;61600;48.126;11.542;2023-03-01T09:26:14;23.65;;;10.60;;
73382;SDS011;61600;48.126;11.542;2023-03-01T09:28:42;23.75;;;10.90;;
73382;SDS011;61600;48.126;11.542;2023-03-01T09:31:10;27.27;;;11.57;;
73382;SDS011;61600;48.126;11.542;2023-03-01T09:33:38;20.55;;;10.35;;
73382;SDS011;61600;48.126;11.542;2023-03-01T09:36:05;26.50;;;12.23;;
73382;SDS011;61600;48.126;11.542;2023-03-01T09:38:33;21.77;;;10.50;;
73382;SDS011;61600;48.126;11.542;2023-03-01T09:41:00;23.23;;;11.00;;
73382;SDS011;61600;48.126;11.542;2023-03-01T09:43:46;26.73;;;11.05;;
73382;SDS011;61600;48.126;11.542;2023-03-01T09:46:19;25.10;;;10.82;;
73382;SDS011;61600;48.126;11.542;2023-03-01T09:51:37;26.63;;;11.70;;
73382;SDS011;61600;48.126;11.542;2023-03-01T09:54:02;23.63;;;10.55;;
73382;SDS011;61600;48.126;11.542;2023-03-01T09:56:34;22.30;;;10.40;;
73382;SDS011;61600;48.126;11.542;2023-03-01T09:59:11;23.48;;;11.57;;
73382;SDS011;61600;48.126;11.542;2023-03-01T10:02:03;27.05;;;12.05;;
73382;SDS011;61600;48.126;11.542;2023-03-01T10:04:50;22.67;;;10.82;;
73382;SDS011;61600;48.126;11.542;2023-03-01T10:09:53;23.85;;;10.23;;
73382;SDS011;61600;48.126;11.542;2023-03-01T10:12:23;24.33;;;11.35;;
73382;SDS011;61600;48.126;11.542;2023-03-01T10:17:43;26.02;;;10.57;;
73382;SDS011;61600;48.126;11.542;2023-03-01T10:20:24;25.63;;;11.10;;
73382;SDS011;61600;48.126;11.542;2023-03-01T10:23:02;26.60;;;11.13;;
73382;SDS011;61600;48.126;11.542;2023-03-01T10:28:44;26.60;;;10.70;;
73382;SDS011;61600;48.126;11.542;2023-03-01T10:30:52;20.25;;;10.45;;
73382;SDS011;61600;48.126;11.542;2023-03-01T10:33:29;25.55;;;10.93;;
73382;SDS011;61600;48.126;11.542;2023-03-01T10:35:57;27.75;;;11.63;;
73382;SDS011;61600;48.126;11.542;2023-03-01T10:38:24;26.33;;;11.15;;
73382;SDS011;61600;48.126;11.542;2023-03-01T10:43:23;25.65;;;11.55;;
73382;SDS011;61600;48.126;11.542;2023-03-01T10:45:57;26.15;;;12.13;;
73382;SDS011;61600;48.126;11.542;2023-03-01T10:48:24;24.98;;;11.23;;
73382;SDS011;61600;48.126;11.542;2023-03-01T10:58:36;24.25;;;11.55;;
73382;SDS011;61600;48.126;11.542;2023-03-01T11:03:41;24.20;;;11.90;;
73382;SDS011;61600;48.126;11.542;2023-03-01T11:08:37;25.90;;;11.43;;
73382;SDS011;61600;48.126;11.542;2023-03-01T11:16:40;22.17;;;11.48;;
73382;SDS011;61600;48.126;11.542;2023-03-01T11:21:41;26.42;;;12.38;;
73382;SDS011;61600;48.126;11.542;2023-03-01T11:24:13;26.25;;;11.30;;
73382;SDS011;61600;48.126;11.542;2023-03-01T11:26:42;22.10;;;11.48;;
73382;SDS011;61600;48.126;11.542;2023-03-01T11:29:21;24.05;;;11.77;;
73382;SDS011;61600;48.126;11.542;2023-03-01T11:31:57;27.30;;;12.27;;
73382;SDS011;61600;48.126;11.542;2023-03-01T11:34:40;25.88;;;12.20;;
73382;SDS011;61600;48.126;11.542;2023-03-01T11:37:32;28.17;;;12.23;;
73382;SDS011;61600;48.126;11.542;2023-03-01T11:51:21;21.85;;;11.07;;
73382;SDS011;61600;48.126;11.542;2023-03-01T11:53:55;22.65;;;12.40;;
73382;SDS011;61600;48.126;11.542;2023-03-01T11:56:38;26.08;;;12.55;;
73382;SDS011;61600;48.126;11.542;2023-03-01T11:59:16;24.30;;;12.23;;
73382;SDS011;61600;48.126;11.542;2023-03-01T12:10:37;26.77;;;12.70;;
73382;SDS011;61600;48.126;11.542;2023-03-01T12:16:22;26.48;;;13.00;;
73382;SDS011;61600;48.126;11.542;2023-03-01T12:19:08;28.80;;;12.52;;
73382;SDS011;61600;48.126;11.542;2023-03-01T12:38:59;24.05;;;11.50;;
73382;SDS011;61600;48.126;11.542;2023-03-01T12:41:37;24.52;;;12.50;;
73382;SDS011;61600;48.126;11.542;2023-03-01T12:47:15;26.58;;;13.27;;
73382;SDS011;61600;48.126;11.542;2023-03-01T12:49:45;26.88;;;12.65;;
73382;SDS011;61600;48.126;11.542;2023-03-01T12:55:06;24.85;;;12.75;;
73382;SDS011;61600;48.126;11.542;2023-03-01T12:58:39;23.88;;;12.68;;
73382;SDS011;61600;48.126;11.542;2023-03-01T13:00:45;25.38;;;11.77;;
73382;SDS011;61600;48.126;11.542;2023-03-01T13:03:26;22.77;;;11.32;;
73382;SDS011;61600;48.126;11.542;2023-03-01T13:11:44;27.15;;;12.18;;
73382;SDS011;61600;48.126;11.542;2023-03-01T13:16:51;21.90;;;11.70;;
73382;SDS011;61600;48.126;11.542;2023-03-01T13:19:18;28.65;;;12.20;;
73382;SDS011;61600;48.126;11.542;2023-03-01T13:21:47;27.42;;;11.88;;
73382;SDS011;61600;48.126;11.542;2023-03-01T13:29:57;23.85;;;11.70;;
73382;SDS011;61600;48.126;11.542;2023-03-01T13:32:32;28.60;;;13.20;;
73382;SDS011;61600;48.126;11.542;2023-03-01T13:37:47;26.27;;;12.68;;
73382;SDS011;61600;48.126;11.542;2023-03-01T13:42:47;24.75;;;12.45;;
73382;SDS011;61600;48.126;11.542;2023-03-01T13:45:16;26.75;;;12.80;;
73382;SDS011;61600;48.126;11.542;2023-03-01T13:47:46;23.55;;;12.32;;
73382;SDS011;61600;48.126;11.542;2023-03-01T13:52:56;24.38;;;12.00;;
73382;SDS011;61600;48.126;11.542;2023-03-01T13:55:44;25.73;;;11.70;;
73382;SDS011;61600;48.126;11.542;2023-03-01T13:58:18;25.33;;;12.95;;
73382;SDS011;61600;48.126;11.542;2023-03-01T14:00:45;23.55;;;11.27;;
73382;SDS011;61600;48.126;11.542;2023-03-01T14:03:15;25.25;;;12.25;;
73382;SDS011;61600;48.126;11.542;2023-03-01T14:05:44;23.58;;;12.48;;
73382;SDS011;61600;48.126;11.542;2023-03-01T14:08:24;24.80;;;12.27;;
73382;SDS011;61600;48.126;11.542;2023-03-01T14:11:01;26.27;;;13.18;;
73382;SDS011;61600;48.126;11.542;2023-03-01T14:13:47;26.15;;;12.18;;
73382;SDS011;61600;48.126;11.542;2023-03-01T14:19:32;27.25;;;13.55;;
73382;SDS011;61600;48.126;11.542;2023-03-01T14:22:04;23.08;;;12.40;;
73382;SDS011;61600;48.126;11.542;2023-03-01T14:24:46;27.85;;;12.57;;
73382;SDS011;61600;48.126;11.542;2023-03-01T14:27:14;25.10;;;12.68;;
73382;SDS011;61600;48.126;11.542;2023-03-01T14:29:40;20.92;;;11.43;;
73382;SDS011;61600;48.126;11.542;2023-03-01T14:32:17;23.23;;;12.18;;
73382;SDS011;61600;48.126;11.542;2023-03-01T14:34:47;23.73;;;12.88;;
73382;SDS011;61600;48.126;11.542;2023-03-01T14:37:18;25.48;;;12.88;;
73382;SDS011;61600;48.126;11.542;2023-03-01T14:39:44;24.00;;;12.43;;
73382;SDS011;61600;48.126;11.542;2023-03-01T14:42:10;23.45;;;12.60;;
73382;SDS011;61600;48.126;11.542;2023-03-01T14:44:38;24.25;;;12.32;;
73382;SDS011;61600;48.126;11.542;2023-03-01T14:47:10;24.48;;;12.07;;
73382;SDS011;61600;48.126;11.542;2023-03-01T14:49:42;19.98;;;10.75;;
73382;SDS011;61600;48.126;11.542;2023-03-01T14:52:20;21.45;;;11.43;;
73382;SDS011;61600;48.126;11.542;2023-03-01T14:54:48;23.48;;;11.88;;
73382;SDS011;61600;48.126;11.542;2023-03-01T14:57:20;20.88;;;10.70;;
73382;SDS011;61600;48.126;11.542;2023-03-01T14:59:48;23.95;;;11.82;;
73382;SDS011;61600;48.126;11.542;2023-03-01T15:02:17;23.50;;;12.10;;
73382;SDS011;61600;48.126;11.542;2023-03-01T15:04:45;23.23;;;11.93;;
73382;SDS011;61600;48.126;11.542;2023-03-01T15:07:13;21.67;;;12.45;;
73382;SDS011;61600;48.126;11.542;2023-03-01T15:09:40;21.35;;;11.23;;
73382;SDS011;61600;48.126;11.542;2023-03-01T15:14:59;20.60;;;10.65;;
73382;SDS011;61600;48.126;11.542;2023-03-01T15:17:26;19.80;;;9.95;;
73382;SDS011;61600;48.126;11.542;2023-03-01T15:20:00;19.77;;;10.27;;
73382;SDS011;61600;48.126;11.542;2023-03-01T15:22:29;18.33;;;9.55;;
73382;SDS011;61600;48.126;11.542;2023-03-01T15:24:55;22.45;;;10.82;;
73382;SDS011;61600;48.126;11.542;2023-03-01T15:27:22;20.20;;;9.57;;
73382;SDS011;61600;48.126;11.542;2023-03-01T15:29:51;21.45;;;11.80;;
73382;SDS011;61600;48.126;11.542;2023-03-01T15:32:26;19.92;;;9.95;;
73382;SDS011;61600;48.126;11.542;2023-03-01T15:34:56;28.35;;;10.18;;
73382;SDS011;61600;48.126;11.542;2023-03-01T15:40:23;18.88;;;10.10;;
73382;SDS011;61600;48.126;11.542;2023-03-01T15:43:03;19.65;;;9.45;;
73382;SDS011;61600;48.126;11.542;2023-03-01T15:45:31;17.92;;;9.63;;
73382;SDS011;61600;48.126;11.542;2023-03-01T15:48:17;20.25;;;10.02;;
73382;SDS011;61600;48.126;11.542;2023-03-01T15:50:46;19.77;;;9.75;;
73382;SDS011;61600;48.126;11.542;2023-03-01T15:53:20;21.85;;;10.48;;
73382;SDS011;61600;48.126;11.542;2023-03-01T15:55:46;24.13;;;10.63;;
73382;SDS011;61600;48.126;11.542;2023-03-01T15:58:16;19.85;;;9.63;;
73382;SDS011;61600;48.126;11.542;2023-03-01T16:00:44;19.33;;;10.00;;
73382;SDS011;61600;48.126;11.542;2023-03-01T16:03:10;21.30;;;10.40;;
73382;SDS011;61600;48.126;11.542;2023-03-01T16:05:37;20.30;;;9.98;;
73382;SDS011;61600;48.126;11.542;2023-03-01T16:08:04;18.55;;;8.88;;
73382;SDS011;61600;48.126;11.542;2023-03-01T16:10:32;18.38;;;9.50;;
73382;SDS011;61600;48.126;11.542;2023-03-01T16:12:58;21.63;;;9.90;;
73382;SDS011;61600;48.126;11.542;2023-03-01T16:15:31;29.27;;;9.45;;
73382;SDS011;61600;48.126;11.542;2023-03-01T16:18:01;23.88;;;9.50;;
73382;SDS011;61600;48.126;11.542;2023-03-01T16:20:28;18.58;;;8.15;;
73382;SDS011;61600;48.126;11.542;2023-03-01T16:25:40;24.25;;;9.55;;
73382;SDS011;61600;48.126;11.542;2023-03-01T16:28:06;20.38;;;9.00;;
73382;SDS011;61600;48.126;11.542;2023-03-01T16:30:35;18.92;;;9.10;;
73382;SDS011;61600;48.126;11.542;2023-03-01T16:33:02;25.52;;;9.82;;
73382;SDS011;61600;48.126;11.542;2023-03-01T16:35:32;19.60;;;9.48;;
73382;SDS011;61600;48.126;11.542;2023-03-01T16:37:59;18.60;;;9.93;;
73382;SDS011;61600;48.126;11.542;2023-03-01T16:42:52;18.98;;;8.88;;
73382;SDS011;61600;48.126;11.542;2023-03-01T16:45:20;24.08;;;9.73;;
73382;SDS011;61600;48.126;11.542;2023-03-01T16:47:46;22.38;;;9.18;;
73382;SDS011;61600;48.126;11.542;2023-03-01T16:50:12;18.05;;;8.95;;